Flight Track Log - Related Links

Times and Time Zones

All times are in EDT time to prevent confusion due to time zone crossing. See the SWA2236 flight status page for this flight to view local times or setup timezone preferences in your user account.


Time Position Orientation Groundspeed Altitude Reporting Facility
EDT Latitude Longitude Course Direction KTS MPH feet Rate Location/Type
Tue 10:37:10 PM 39.1833 -76.7000 197° South 158 182 1,200  Level Potomac TRACON
Tue 10:39:18 PM 39.0956 -76.7336 197° South 153 176 6,000 1,839 Climbing Washington Center
Tue 10:40:16 PM 39.0881 -76.6478 96° East 148 170 6,900 655 Climbing Washington Center
Tue 10:41:17 PM 39.1014 -76.5519 80° East 185 213 7,300 1,770 Climbing Washington Center
Tue 10:42:18 PM 39.1167 -76.4531 79° East 243 280 10,500 2,926 Climbing Washington Center
Tue 10:43:18 PM 39.1342 -76.3408 79° East 283 326 13,200 2,949 Climbing Washington Center
Tue 10:44:16 PM 39.1514 -76.2206 80° East 321 369 16,300 2,898 Climbing Washington Center
Tue 10:45:16 PM 39.1686 -76.0789 81° East 349 402 18,900 2,311 Climbing Washington Center
Tue 10:46:18 PM 39.1858 -75.9397 81° East 370 426 21,000 2,000 Climbing Washington Center
Tue 10:47:19 PM 39.2383 -75.8139 62° Northeast 387 445 23,000 1,613 Climbing Washington Center
Tue 10:48:17 PM 39.3258 -75.7097 43° Northeast 396 456 24,200 1,983 Climbing Washington Center
Tue 10:49:17 PM 39.4072 -75.6022 46° Northeast 402 463 26,900 2,380 Climbing Washington Center
Tue 10:50:18 PM 39.4906 -75.4975 44° Northeast 407 468 29,000 1,059 Climbing Washington Center
Tue 10:51:16 PM 39.5739 -75.3897 45° Northeast 407 468 29,000  Level Washington Center
Tue 10:52:18 PM 39.6569 -75.2789 46° Northeast 412 474 29,000  Level Washington Center
Tue 10:53:18 PM 39.7397 -75.1625 47° Northeast 417 480 29,000  Level Washington Center
Tue 10:54:17 PM 39.8186 -75.0431 49° Northeast 436 502 29,000  Level Washington Center
Tue 10:55:18 PM 39.8931 -74.9425 46° Northeast 436 502 29,000  Level Washington Center
Tue 10:56:31 PM 40.0011 -74.7922 47° Northeast 419 482 29,000  Level New York Center
Tue 10:57:30 PM 40.0836 -74.6967 42° Northeast 425 489 29,000  Level New York Center
Tue 10:58:31 PM 40.1833 -74.5828 41° Northeast 425 489 29,000  Level New York Center
Tue 10:59:30 PM 40.2744 -74.4733 42° Northeast 431 496 29,000  Level New York Center
Tue 11:00:32 PM 40.3672 -74.3694 40° Northeast 431 496 29,000 -217 Level New York Center
Tue 11:02:16 PM 40.5153 -74.1897 43° Northeast 427 491 28,400 -585 Descending Boston Center
Tue 11:03:16 PM 40.6025 -74.0856 42° Northeast 427 491 27,400 -1,150 Descending Boston Center
Tue 11:04:16 PM 40.6997 -73.9731 41° Northeast 417 480 26,100 -1,700 Descending Boston Center
Tue 11:05:16 PM 40.7825 -73.8764 41° Northeast 407 468 24,000 -1,050 Descending Boston Center
Tue 11:06:16 PM 40.8608 -73.7767 44° Northeast 397 457 24,000 -400 Level Boston Center
Tue 11:07:16 PM 40.9242 -73.7008 42° Northeast 391 450 23,200 -500 Descending Boston Center
Tue 11:08:16 PM 41.0253 -73.5956 38° Northeast 386 444 23,000 -100 Descending Boston Center
Tue 11:09:16 PM 41.1294 -73.6003 358° North 355 409 23,000 -450 Level Boston Center
Tue 11:10:16 PM 41.2333 -73.6131 355° North 356 410 22,100 -850 Descending Boston Center
Tue 11:11:16 PM 41.3250 -73.6231 355° North 361 415 21,300 -900 Descending Boston Center
Tue 11:12:16 PM 41.4250 -73.6389 353° North 366 421 20,300 -1,050 Descending Boston Center
Tue 11:13:16 PM 41.5372 -73.6547 354° North 366 421 19,200 -1,000 Descending Boston Center
Tue 11:14:16 PM 41.6289 -73.6647 355° North 366 421 18,300 -900 Descending Boston Center
Tue 11:15:16 PM 41.7350 -73.6808 354° North 360 414 17,400 -1,300 Descending Boston Center
Tue 11:16:16 PM 41.8328 -73.6911 356° North 354 407 15,700 -1,800 Descending Boston Center
Tue 11:17:16 PM 41.9244 -73.7069 353° North 342 394 13,800 -2,000 Descending Boston Center
Tue 11:18:16 PM 42.0181 -73.7172 355° North 337 388 11,700 -1,400 Descending Boston Center
Tue 11:19:16 PM 42.0972 -73.7244 356° North 317 365 11,000 -650 Descending Boston Center
Tue 11:20:16 PM 42.1867 -73.7372 354° North 301 346 10,400 -1,150 Descending Boston Center
Tue 11:21:16 PM 42.2575 -73.7472 354° North 291 335 8,700 -1,850 Descending Boston Center
Tue 11:22:16 PM 42.3386 -73.7603 353° North 272 313 6,700 -1,850 Descending Boston Center
Tue 11:23:16 PM 42.4053 -73.7672 356° North 272 313 5,000 -1,750 Descending Boston Center
Tue 11:24:16 PM 42.4864 -73.7775 355° North 266 306 3,200 -1,403 Descending Boston Center
Tue 11:25:20 PM 42.5611 -73.7903 353° North 256 295 2,100 -550 Descending Boston Center
Tue 11:26:27 PM 42.6300 -73.7975 356° North 202 232 2,000 -94 Descending Boston Center
Tue 11:27:28 PM 42.6861 -73.8100 351° North 225 259 1,900 10,413 Descending Boston Center
Tue 11:28:28 PM 42.7483 -73.8169 355° North 225 259 23,000 10,550 Climbing Boston Center
Tue 11:29:28 PM 42.8108 -73.8269 353° North 225 259 23,000  Level Boston Center
Tue 11:30:28 PM 42.8733 -73.8339 355° North 225 259 23,000  Level Boston Center
Tue 11:31:28 PM 42.8858 -73.8369 350° North 225 259 23,000  Level Boston Center
Tue 11:32:28 PM 42.8858 -73.8369 316° Northwest 225 259 23,000  Level Boston Center

Login

Don't have an account? Register now (free) for customized features, flight alerts, and more!